Time;durP1;ratioP1;P1;durP2;ratioP2;P2;SDS_P1;SDS_P2;PMS_P1;PMS_P2;Temp;Humidity;BMP_temperature;BMP_pressure;BME280_temperature;BME280_humidity;BME280_pressure;Samples;Min_cycle;Max_cycle;Signal;HPM_P1;HPM_P2
2024/03/01 00:00:47;;;;;;;14.13;5.65;;;;;;;;;;7409959;19;19915;-77
2024/03/01 00:03:33;;;;;;;;;;;;;;;;;;7411788;19;19933;-77
2024/03/01 00:06:20;;;;;;;11.18;4.85;;;;;;;;;;7409797;19;20353;-77
2024/03/01 00:09:05;;;;;;;14.57;5.78;;;;;;;;;;7411389;19;20330;-77
2024/03/01 00:11:51;;;;;;;12.02;5.38;;;;;;;;;;7408299;19;19937;-77
2024/03/01 00:14:38;;;;;;;15.40;6.07;;;;;;;;;;7410006;19;19934;-77
2024/03/01 00:17:22;;;;;;;13.57;6.35;;;;;;;;;;7410452;19;19978;-77
2024/03/01 00:20:14;;;;;;;15.93;7.07;;;;;;;;;;7410798;19;19922;-77
2024/03/01 00:22:58;;;;;;;16.00;6.93;;;;;;;;;;7408883;19;19974;-77
2024/03/01 00:25:45;;;;;;;16.75;6.75;;;;;;;;;;7408610;19;19917;-77
2024/03/01 00:28:31;;;;;;;15.25;6.45;;;;;;;;;;7410501;19;20326;-77
2024/03/01 00:31:15;;;;;;;;;;;;;;;;;;7411282;19;19911;-77
2024/03/01 00:34:00;;;;;;;14.35;5.60;;;;;;;;;;7406869;19;19942;-77
2024/03/01 00:36:51;;;;;;;16.70;6.50;;;;;;;;;;7410652;19;20325;-77
2024/03/01 00:39:38;;;;;;;16.73;6.78;;;;;;;;;;7410794;19;19922;-77
2024/03/01 00:42:25;;;;;;;16.27;6.13;;;;;;;;;;7407539;19;19974;-77
2024/03/01 00:45:10;;;;;;;11.85;5.43;;;;;;;;;;7410405;19;19929;-77
2024/03/01 00:47:59;;;;;;;14.13;5.68;;;;;;;;;;7409931;19;19910;-77
2024/03/01 00:50:44;;;;;;;14.65;5.72;;;;;;;;;;7410672;19;19944;-77
2024/03/01 00:53:34;;;;;;;14.13;6.18;;;;;;;;;;7405535;19;19941;-77
2024/03/01 00:56:18;;;;;;;17.13;6.63;;;;;;;;;;7409105;19;19941;-77
2024/03/01 00:59:04;;;;;;;21.23;5.85;;;;;;;;;;7409942;19;20326;-77
2024/03/01 01:01:53;;;;;;;15.13;6.65;;;;;;;;;;7410302;19;20273;-77
2024/03/01 01:04:38;;;;;;;;;;;;;;;;;;7407769;19;20273;-77
2024/03/01 01:07:23;;;;;;;20.75;6.72;;;;;;;;;;7408232;19;20321;-77
2024/03/01 01:10:10;;;;;;;12.13;5.30;;;;;;;;;;7410138;19;19974;-77
2024/03/01 01:12:55;;;;;;;14.23;5.63;;;;;;;;;;7406506;19;19998;-77
2024/03/01 01:15:41;;;;;;;14.18;5.78;;;;;;;;;;7407918;19;19933;-77
2024/03/01 01:18:28;;;;;;;14.27;5.85;;;;;;;;;;7406323;19;19910;-77
2024/03/01 01:21:12;;;;;;;;;;;;;;;;;;7411826;19;19970;-77
2024/03/01 01:24:01;;;;;;;15.07;6.38;;;;;;;;;;7407920;19;19918;-77
2024/03/01 01:26:48;;;;;;;14.52;6.00;;;;;;;;;;7407529;19;20340;-77
2024/03/01 01:29:34;;;;;;;14.93;6.68;;;;;;;;;;7407832;19;20278;-77
2024/03/01 01:32:21;;;;;;;17.15;6.18;;;;;;;;;;7408690;19;20292;-77
2024/03/01 01:35:09;;;;;;;21.15;7.18;;;;;;;;;;7409821;19;19967;-77
2024/03/01 01:37:56;;;;;;;11.40;5.38;;;;;;;;;;7406298;19;19923;-77
2024/03/01 01:40:45;;;;;;;16.05;5.93;;;;;;;;;;7409541;19;19974;-77
2024/03/01 01:43:42;;;;;;;14.55;6.10;;;;;;;;;;7406666;19;19910;-77
2024/03/01 01:46:26;;;;;;;16.13;6.25;;;;;;;;;;7406924;19;19970;-77
2024/03/01 01:49:15;;;;;;;12.32;6.00;;;;;;;;;;7407944;19;19918;-77
2024/03/01 01:52:01;;;;;;;18.38;6.60;;;;;;;;;;7407611;19;19914;-77
2024/03/01 01:54:50;;;;;;;14.82;6.50;;;;;;;;;;7408168;19;19978;-77
2024/03/01 01:57:37;;;;;;;17.10;7.05;;;;;;;;;;7408692;19;19910;-77
2024/03/01 02:00:30;;;;;;;18.33;6.75;;;;;;;;;;7408018;19;19919;-77
2024/03/01 02:03:16;;;;;;;18.75;7.32;;;;;;;;;;7407912;19;19914;-77
2024/03/01 02:06:01;;;;;;;20.30;7.90;;;;;;;;;;7407997;19;19918;-77
2024/03/01 02:08:45;;;;;;;15.27;6.10;;;;;;;;;;7406980;19;19918;-77
2024/03/01 02:11:32;;;;;;;13.63;5.75;;;;;;;;;;7403693;19;19944;-77
2024/03/01 02:14:16;;;;;;;15.38;6.63;;;;;;;;;;7406135;19;19910;-77
2024/03/01 02:17:06;;;;;;;16.05;5.95;;;;;;;;;;7406164;19;20572;-77
2024/03/01 02:19:52;;;;;;;18.38;6.07;;;;;;;;;;7405849;19;19923;-76
2024/03/01 02:22:41;;;;;;;16.55;7.15;;;;;;;;;;7407258;19;19922;-76
2024/03/01 02:25:31;;;;;;;16.85;7.13;;;;;;;;;;7408341;19;19922;-76
2024/03/01 02:28:15;;;;;;;16.95;6.45;;;;;;;;;;7405017;19;20342;-76
2024/03/01 02:31:03;;;;;;;15.57;7.65;;;;;;;;;;7407114;19;19992;-76
2024/03/01 02:33:47;;;;;;;18.83;6.63;;;;;;;;;;7405337;19;20254;-76
2024/03/01 02:36:36;;;;;;;13.75;6.10;;;;;;;;;;7406077;19;19922;-76
2024/03/01 02:39:25;;;;;;;19.85;7.03;;;;;;;;;;7405633;19;19923;-76
2024/03/01 02:42:14;;;;;;;16.80;6.47;;;;;;;;;;7406693;19;19914;-76
2024/03/01 02:44:58;;;;;;;15.95;6.10;;;;;;;;;;7406178;19;19918;-76
2024/03/01 02:47:45;;;;;;;18.13;7.00;;;;;;;;;;7405494;19;20331;-76
2024/03/01 02:50:31;;;;;;;16.50;6.00;;;;;;;;;;7403917;19;19930;-76
2024/03/01 02:53:16;;;;;;;17.50;6.45;;;;;;;;;;7404872;19;19941;-76
2024/03/01 02:56:00;;;;;;;17.45;6.40;;;;;;;;;;7406163;19;19945;-76
2024/03/01 02:58:47;;;;;;;;;;;;;;;;;;7408997;19;19914;-77
2024/03/01 03:01:32;;;;;;;10.50;4.50;;;;;;;;;;7406741;19;19918;-77
2024/03/01 03:04:21;;;;;;;13.88;6.15;;;;;;;;;;7406509;19;19978;-77
2024/03/01 03:07:05;;;;;;;;;;;;;;;;;;7406471;19;19921;-77
2024/03/01 03:09:51;;;;;;;18.38;7.45;;;;;;;;;;7404405;19;20004;-77
2024/03/01 03:12:38;;;;;;;13.93;5.50;;;;;;;;;;7404807;19;20289;-77
2024/03/01 03:15:28;;;;;;;12.05;5.55;;;;;;;;;;7405309;19;19918;-77
2024/03/01 03:18:15;;;;;;;17.13;6.82;;;;;;;;;;7404841;19;19910;-77
2024/03/01 03:20:59;;;;;;;13.57;6.00;;;;;;;;;;7401644;19;19930;-77
2024/03/01 03:23:43;;;;;;;14.02;5.60;;;;;;;;;;7408308;19;19918;-77
2024/03/01 03:26:27;;;;;;;16.92;5.75;;;;;;;;;;7410697;19;19927;-77
2024/03/01 03:29:16;;;;;;;19.08;6.53;;;;;;;;;;7413462;19;20325;-77
2024/03/01 03:32:03;;;;;;;10.98;4.75;;;;;;;;;;7410789;19;19918;-77
2024/03/01 03:34:47;;;;;;;14.95;5.40;;;;;;;;;;7410520;19;19914;-77
2024/03/01 03:37:34;;;;;;;13.00;5.22;;;;;;;;;;7409958;19;19931;-77
2024/03/01 03:40:19;;;;;;;15.05;6.00;;;;;;;;;;7412892;19;19931;-77
2024/03/01 03:43:08;;;;;;;15.95;6.60;;;;;;;;;;7410646;19;19914;-77
2024/03/01 03:45:54;;;;;;;17.08;6.00;;;;;;;;;;7410511;19;19907;-77
2024/03/01 03:48:41;;;;;;;;;;;;;;;;;;7421328;19;19963;-83
2024/03/01 03:51:26;;;;;;;17.38;5.78;;;;;;;;;;7422054;19;20592;-83
2024/03/01 03:54:15;;;;;;;19.42;6.03;;;;;;;;;;7419253;19;19919;-83
2024/03/01 03:57:03;;;;;;;13.32;5.25;;;;;;;;;;7419891;19;20343;-83
2024/03/01 03:59:49;;;;;;;14.63;5.47;;;;;;;;;;7421698;19;19923;-83
2024/03/01 04:02:33;;;;;;;;;;;;;;;;;;7423672;19;19910;-83
2024/03/01 04:05:20;;;;;;;13.68;5.90;;;;;;;;;;7421615;19;19915;-83
2024/03/01 04:08:05;;;;;;;15.85;5.45;;;;;;;;;;7420859;19;19930;-83
2024/03/01 04:10:52;;;;;;;16.30;6.35;;;;;;;;;;7421103;19;19919;-83
2024/03/01 04:13:37;;;;;;;19.05;6.45;;;;;;;;;;7419762;19;19929;-83
2024/03/01 04:16:24;;;;;;;15.13;5.75;;;;;;;;;;7420647;19;19975;-82
2024/03/01 04:19:13;;;;;;;12.23;5.78;;;;;;;;;;7420640;19;20257;-82
2024/03/01 04:22:08;;;;;;;24.00;9.98;;;;;;;;;;7420682;19;19921;-82
2024/03/01 04:24:57;;;;;;;15.50;6.75;;;;;;;;;;7421203;19;19915;-82
2024/03/01 04:27:43;;;;;;;19.08;7.82;;;;;;;;;;7418932;19;19918;-83
2024/03/01 04:30:32;;;;;;;18.60;7.40;;;;;;;;;;7420770;19;19918;-83
2024/03/01 04:33:19;;;;;;;12.80;5.85;;;;;;;;;;7418410;19;19930;-83
2024/03/01 04:36:04;;;;;;;14.68;5.43;;;;;;;;;;7418262;19;19925;-83
2024/03/01 04:38:51;;;;;;;15.20;5.85;;;;;;;;;;7419621;19;19928;-83
2024/03/01 04:41:35;;;;;;;16.48;5.45;;;;;;;;;;7421237;19;19926;-83
2024/03/01 04:44:25;;;;;;;18.88;6.53;;;;;;;;;;7420506;19;19910;-83
2024/03/01 04:47:13;;;;;;;21.58;7.07;;;;;;;;;;7418329;19;19934;-82
2024/03/01 04:50:02;;;;;;;10.30;4.82;;;;;;;;;;7420453;19;19922;-82
2024/03/01 04:52:49;;;;;;;18.25;6.15;;;;;;;;;;7417944;19;19919;-82
2024/03/01 04:55:38;;;;;;;16.58;6.07;;;;;;;;;;7420259;19;19923;-82
2024/03/01 04:58:24;;;;;;;11.90;4.97;;;;;;;;;;7419735;19;20002;-82
2024/03/01 05:01:10;;;;;;;;;;;;;;;;;;7421523;19;19915;-82
2024/03/01 05:03:57;;;;;;;16.05;6.50;;;;;;;;;;7420802;19;19918;-83
2024/03/01 05:06:41;;;;;;;;;;;;;;;;;;7422249;19;20002;-83
2024/03/01 05:09:26;;;;;;;12.27;5.97;;;;;;;;;;7420895;19;20012;-83
2024/03/01 05:12:15;;;;;;;12.65;6.32;;;;;;;;;;7419762;19;20639;-83
2024/03/01 05:15:00;;;;;;;14.90;6.22;;;;;;;;;;7418453;19;19910;-83
2024/03/01 05:17:47;;;;;;;18.45;6.32;;;;;;;;;;7416558;19;19926;-81
2024/03/01 05:20:35;;;;;;;14.90;5.80;;;;;;;;;;7421700;19;19914;-81
2024/03/01 05:23:22;;;;;;;15.23;7.20;;;;;;;;;;7419274;19;19915;-81
2024/03/01 05:26:09;;;;;;;16.17;6.03;;;;;;;;;;7420796;19;19923;-81
2024/03/01 05:29:01;;;;;;;19.38;7.28;;;;;;;;;;7422558;19;19919;-80
2024/03/01 05:31:49;;;;;;;16.27;6.55;;;;;;;;;;7423119;19;19919;-81
2024/03/01 05:34:36;;;;;;;15.40;7.00;;;;;;;;;;7420137;19;19917;-80
2024/03/01 05:37:22;;;;;;;14.95;6.45;;;;;;;;;;7415365;19;19910;-80
2024/03/01 05:40:12;;;;;;;17.80;6.93;;;;;;;;;;7416929;19;19918;-80
2024/03/01 05:42:59;;;;;;;18.80;6.78;;;;;;;;;;7415114;19;20372;-80
2024/03/01 05:45:46;;;;;;;22.23;7.32;;;;;;;;;;7414249;19;19982;-80
2024/03/01 05:48:30;;;;;;;17.10;6.13;;;;;;;;;;7414290;19;19918;-81
2024/03/01 05:51:14;;;;;;;;;;;;;;;;;;7417951;19;19994;-80
2024/03/01 05:53:58;;;;;;;17.83;6.25;;;;;;;;;;7412479;19;19955;-81
2024/03/01 05:56:45;;;;;;;19.27;7.35;;;;;;;;;;7407218;19;20010;-81
2024/03/01 05:59:30;;;;;;;19.60;6.45;;;;;;;;;;7415264;19;19925;-80
2024/03/01 06:02:16;;;;;;;;;;;;;;;;;;7421097;19;19918;-81
2024/03/01 06:05:03;;;;;;;14.68;5.95;;;;;;;;;;7420359;19;19918;-79
2024/03/01 06:07:47;;;;;;;;;;;;;;;;;;7423372;19;19915;-81
2024/03/01 06:10:34;;;;;;;12.10;5.63;;;;;;;;;;7420855;19;19915;-81
2024/03/01 06:13:18;;;;;;;15.90;6.10;;;;;;;;;;7417632;19;19910;-81
2024/03/01 06:16:03;;;;;;;;;;;;;;;;;;7417603;19;19918;-81
2024/03/01 06:18:52;;;;;;;20.25;7.43;;;;;;;;;;7413673;19;19931;-80
2024/03/01 06:21:36;;;;;;;14.63;6.03;;;;;;;;;;7412016;19;19918;-81
2024/03/01 06:24:21;;;;;;;17.83;6.18;;;;;;;;;;7414488;19;19914;-80
2024/03/01 06:27:09;;;;;;;14.45;6.32;;;;;;;;;;7410020;19;19937;-80
2024/03/01 06:29:54;;;;;;;14.88;7.25;;;;;;;;;;7415621;19;19931;-80
2024/03/01 06:32:42;;;;;;;17.02;6.90;;;;;;;;;;7413800;19;19958;-80
2024/03/01 06:35:30;;;;;;;20.67;7.03;;;;;;;;;;7414219;19;19911;-80
2024/03/01 06:38:15;;;;;;;17.25;6.40;;;;;;;;;;7416558;19;19920;-80
2024/03/01 06:40:59;;;;;;;;;;;;;;;;;;7418760;19;19922;-80
2024/03/01 06:43:48;;;;;;;16.95;7.35;;;;;;;;;;7411811;19;19923;-80
2024/03/01 06:46:35;;;;;;;23.15;7.93;;;;;;;;;;7408839;19;19921;-80
2024/03/01 06:49:22;;;;;;;15.50;6.25;;;;;;;;;;7411875;19;20333;-80
2024/03/01 06:52:12;;;;;;;24.42;8.50;;;;;;;;;;7414495;19;19938;-80
2024/03/01 06:54:57;;;;;;;14.90;6.75;;;;;;;;;;7407411;19;19918;-80
2024/03/01 06:57:43;;;;;;;19.38;7.72;;;;;;;;;;7411997;19;19933;-81
2024/03/01 07:00:30;;;;;;;18.90;7.05;;;;;;;;;;7424926;19;19930;-81
2024/03/01 07:03:17;;;;;;;17.25;6.82;;;;;;;;;;7417517;19;20317;-81
2024/03/01 07:06:02;;;;;;;15.43;6.20;;;;;;;;;;7425209;19;20300;-81
2024/03/01 07:08:49;;;;;;;17.10;7.93;;;;;;;;;;7428421;19;19915;-81
2024/03/01 07:11:36;;;;;;;22.13;8.25;;;;;;;;;;7422810;19;19922;-81
2024/03/01 07:14:23;;;;;;;20.15;8.57;;;;;;;;;;7418277;19;20397;-78
2024/03/01 07:17:07;;;;;;;29.67;13.25;;;;;;;;;;7420989;19;20330;-78
2024/03/01 07:19:53;;;;;;;36.45;16.33;;;;;;;;;;7424543;19;20365;-78
2024/03/01 07:22:39;;;;;;;37.30;15.20;;;;;;;;;;7422700;19;19923;-79
2024/03/01 07:25:28;;;;;;;26.40;11.90;;;;;;;;;;7423952;19;20275;-79
2024/03/01 07:28:15;;;;;;;24.52;10.32;;;;;;;;;;7422237;19;19990;-79
2024/03/01 07:31:05;;;;;;;24.35;10.35;;;;;;;;;;7415611;19;19931;-78
2024/03/01 07:33:55;;;;;;;25.50;10.05;;;;;;;;;;7423971;19;20353;-78
2024/03/01 07:36:44;;;;;;;20.95;9.35;;;;;;;;;;7425855;19;19919;-78
2024/03/01 07:39:31;;;;;;;27.58;10.85;;;;;;;;;;7426182;19;19914;-78
2024/03/01 07:42:18;;;;;;;21.13;9.25;;;;;;;;;;7417632;19;19984;-78
2024/03/01 07:45:05;;;;;;;21.27;9.15;;;;;;;;;;7425962;19;19925;-79
2024/03/01 07:47:49;;;;;;;23.35;9.13;;;;;;;;;;7421449;19;19914;-79
2024/03/01 07:50:37;;;;;;;23.42;9.63;;;;;;;;;;7425541;19;19915;-79
2024/03/01 07:53:24;;;;;;;25.85;10.90;;;;;;;;;;7423797;19;19926;-79
2024/03/01 07:56:09;;;;;;;27.15;11.50;;;;;;;;;;7424062;19;19933;-79
2024/03/01 07:59:04;;;;;;;19.13;8.93;;;;;;;;;;7424503;19;19918;-79
2024/03/01 08:01:53;;;;;;;28.23;9.90;;;;;;;;;;7422499;19;19920;-79
2024/03/01 08:04:39;;;;;;;32.80;11.35;;;;;;;;;;7423503;19;19922;-80
2024/03/01 08:07:26;;;;;;;25.38;9.23;;;;;;;;;;7422336;19;19925;-80
2024/03/01 08:10:17;;;;;;;21.65;9.50;;;;;;;;;;7418800;19;19941;-79
2024/03/01 08:13:04;;;;;;;25.80;8.30;;;;;;;;;;7412621;19;20298;-79
2024/03/01 08:15:53;;;;;;;25.17;8.98;;;;;;;;;;7412660;19;19918;-79
2024/03/01 08:18:44;;;;;;;22.63;8.45;;;;;;;;;;7416101;19;19911;-79
2024/03/01 08:21:29;;;;;;;23.00;9.45;;;;;;;;;;7411806;19;20436;-79
2024/03/01 08:24:14;;;;;;;24.88;8.80;;;;;;;;;;7411668;19;19926;-79
2024/03/01 08:26:58;;;;;;;23.27;9.32;;;;;;;;;;7413622;19;19957;-80
2024/03/01 08:29:43;;;;;;;23.02;9.07;;;;;;;;;;7415600;19;20257;-80
2024/03/01 08:32:38;;;;;;;26.05;9.75;;;;;;;;;;7410432;19;19914;-80
2024/03/01 08:35:27;;;;;;;25.38;9.60;;;;;;;;;;7410803;19;19933;-80
2024/03/01 08:38:49;;;;;;;21.38;8.70;;;;;;;;;;7415480;19;19915;-79
2024/03/01 08:41:34;;;;;;;20.02;9.25;;;;;;;;;;7414834;19;19915;-79
2024/03/01 08:44:54;;;;;;;31.38;10.27;;;;;;;;;;7413284;19;19922;-79
2024/03/01 08:47:45;;;;;;;23.35;9.45;;;;;;;;;;7415313;19;19911;-79
2024/03/01 08:50:39;;;;;;;24.58;9.32;;;;;;;;;;7414221;19;20278;-80
2024/03/01 08:53:56;;;;;;;26.27;10.57;;;;;;;;;;7411638;19;19918;-80
2024/03/01 08:56:41;;;;;;;22.42;10.15;;;;;;;;;;7409353;19;20345;-80
2024/03/01 08:59:45;;;;;;;32.13;12.23;;;;;;;;;;7416394;19;19929;-80
2024/03/01 09:02:48;;;;;;;28.52;11.55;;;;;;;;;;7412004;19;19915;-80
2024/03/01 09:05:40;;;;;;;35.03;13.07;;;;;;;;;;7413724;19;19923;-80
2024/03/01 09:08:31;;;;;;;25.33;11.25;;;;;;;;;;7411657;19;19935;-80
2024/03/01 09:11:21;;;;;;;30.02;10.98;;;;;;;;;;7415062;19;19926;-80
2024/03/01 09:14:20;;;;;;;29.90;11.30;;;;;;;;;;7413787;19;20003;-80
2024/03/01 09:17:08;;;;;;;31.23;10.90;;;;;;;;;;7413922;19;19922;-80
2024/03/01 09:19:55;;;;;;;30.77;11.82;;;;;;;;;;7415149;19;19919;-80
2024/03/01 09:22:45;;;;;;;31.13;11.82;;;;;;;;;;7412272;19;19910;-80
2024/03/01 09:26:13;;;;;;;28.10;11.68;;;;;;;;;;7413891;19;19998;-80
2024/03/01 09:29:04;;;;;;;31.33;12.63;;;;;;;;;;7414877;19;19926;-80
2024/03/01 09:31:48;;;;;;;32.10;12.80;;;;;;;;;;7415827;19;20296;-80
2024/03/01 09:34:39;;;;;;;27.55;12.13;;;;;;;;;;7412301;19;19985;-80
2024/03/01 09:37:31;;;;;;;30.25;12.50;;;;;;;;;;7407563;19;21111;-80
2024/03/01 09:41:03;;;;;;;32.78;13.98;;;;;;;;;;7409694;19;20588;-80
2024/03/01 09:43:55;;;;;;;30.58;12.30;;;;;;;;;;7413236;19;19910;-80
2024/03/01 09:46:49;;;;;;;37.17;12.95;;;;;;;;;;7411958;19;19910;-81
2024/03/01 09:49:43;;;;;;;30.45;11.90;;;;;;;;;;7414747;19;19910;-81
2024/03/01 09:52:42;;;;;;;35.45;12.02;;;;;;;;;;7414019;19;19918;-80
2024/03/01 09:55:44;;;;;;;27.42;13.00;;;;;;;;;;7409484;19;19934;-80
2024/03/01 09:58:40;;;;;;;30.90;14.20;;;;;;;;;;7411229;19;19922;-79
2024/03/01 10:01:34;;;;;;;22.88;11.77;;;;;;;;;;7410106;19;19949;-80
2024/03/01 10:04:34;;;;;;;25.33;12.02;;;;;;;;;;7411613;19;19915;-79
2024/03/01 10:07:28;;;;;;;24.85;13.10;;;;;;;;;;7406819;19;20338;-80
2024/03/01 10:10:36;;;;;;;29.13;10.65;;;;;;;;;;7411079;19;19926;-80
2024/03/01 10:13:35;;;;;;;26.15;11.13;;;;;;;;;;7411991;19;19931;-81
2024/03/01 10:16:30;;;;;;;25.67;11.60;;;;;;;;;;7410340;19;19922;-80
2024/03/01 10:19:32;;;;;;;23.58;10.18;;;;;;;;;;7411791;19;20360;-80
2024/03/01 10:22:27;;;;;;;27.70;12.15;;;;;;;;;;7409214;19;19935;-80
2024/03/01 10:25:25;;;;;;;25.98;11.70;;;;;;;;;;7415383;19;19940;-80
2024/03/01 10:28:25;;;;;;;23.60;11.43;;;;;;;;;;7410591;19;20354;-79
2024/03/01 10:31:17;;;;;;;24.25;11.10;;;;;;;;;;7415162;19;19918;-81
2024/03/01 10:34:08;;;;;;;24.48;11.18;;;;;;;;;;7408301;19;19922;-81
2024/03/01 10:36:56;;;;;;;22.30;11.30;;;;;;;;;;7408800;19;19922;-81
2024/03/01 10:39:48;;;;;;;26.30;10.90;;;;;;;;;;7412072;19;20006;-81
2024/03/01 10:42:41;;;;;;;22.05;10.30;;;;;;;;;;7412200;19;19922;-80
2024/03/01 10:45:37;;;;;;;21.98;10.88;;;;;;;;;;7411338;19;20008;-80
2024/03/01 10:48:23;;;;;;;22.33;10.88;;;;;;;;;;7409508;19;19930;-81
2024/03/01 10:51:13;;;;;;;22.65;9.68;;;;;;;;;;7410769;19;19990;-81
2024/03/01 10:53:58;;;;;;;21.10;9.68;;;;;;;;;;7411548;19;19933;-80
2024/03/01 10:56:52;;;;;;;22.80;9.07;;;;;;;;;;7409034;19;19915;-80
2024/03/01 10:59:48;;;;;;;19.30;8.70;;;;;;;;;;7414759;19;19922;-80
2024/03/01 11:02:38;;;;;;;17.40;8.15;;;;;;;;;;7414898;19;20378;-80
2024/03/01 11:05:32;;;;;;;19.40;8.57;;;;;;;;;;7409906;19;19915;-80
2024/03/01 11:08:28;;;;;;;14.43;6.82;;;;;;;;;;7409696;19;19941;-79
2024/03/01 11:11:26;;;;;;;12.45;6.88;;;;;;;;;;7415418;19;19914;-79
2024/03/01 11:14:14;;;;;;;11.35;5.38;;;;;;;;;;7409216;19;19911;-80
2024/03/01 11:17:03;;;;;;;11.20;5.43;;;;;;;;;;7406857;19;19916;-80
2024/03/01 11:19:51;;;;;;;11.18;5.53;;;;;;;;;;7407610;19;19923;-79
2024/03/01 11:22:40;;;;;;;11.40;5.85;;;;;;;;;;7407982;19;19918;-80
2024/03/01 11:25:27;;;;;;;11.35;5.43;;;;;;;;;;7409671;19;19922;-79
2024/03/01 11:28:19;;;;;;;9.95;4.38;;;;;;;;;;7406527;19;19918;-80
2024/03/01 11:31:10;;;;;;;9.52;4.63;;;;;;;;;;7408917;19;19922;-80
2024/03/01 11:34:01;;;;;;;10.13;4.95;;;;;;;;;;7409569;19;19942;-80
2024/03/01 11:36:56;;;;;;;10.35;5.05;;;;;;;;;;7405314;19;19950;-80
2024/03/01 11:39:48;;;;;;;9.25;4.75;;;;;;;;;;7408807;19;19914;-80
2024/03/01 11:42:41;;;;;;;7.47;4.18;;;;;;;;;;7406757;19;19926;-80
2024/03/01 11:45:42;;;;;;;10.23;4.25;;;;;;;;;;7413230;19;19918;-80
2024/03/01 11:48:37;;;;;;;7.72;4.15;;;;;;;;;;7409855;19;20309;-80
2024/03/01 11:51:38;;;;;;;8.68;4.30;;;;;;;;;;7411973;19;20313;-79
2024/03/01 11:54:44;;;;;;;6.00;3.47;;;;;;;;;;7413752;19;19918;-80
2024/03/01 11:57:40;;;;;;;8.63;3.75;;;;;;;;;;7412111;19;19910;-80
2024/03/01 12:00:41;;;;;;;6.72;3.22;;;;;;;;;;7414027;19;20337;-80
2024/03/01 12:04:06;;;;;;;6.13;3.28;;;;;;;;;;7412854;19;19978;-80
2024/03/01 12:07:09;;;;;;;4.63;2.67;;;;;;;;;;7412458;19;19986;-80
2024/03/01 12:10:03;;;;;;;6.28;2.78;;;;;;;;;;7414348;19;19913;-80
2024/03/01 12:12:51;;;;;;;3.63;2.15;;;;;;;;;;7412405;19;19906;-81
2024/03/01 12:15:43;;;;;;;4.50;2.20;;;;;;;;;;7413041;19;19918;-81
2024/03/01 12:18:32;;;;;;;4.03;2.40;;;;;;;;;;7410413;19;20173;-81
2024/03/01 12:21:28;;;;;;;3.58;2.15;;;;;;;;;;7413309;19;19922;-81
2024/03/01 12:24:19;;;;;;;4.03;2.17;;;;;;;;;;7410864;19;19922;-81
2024/03/01 12:27:12;;;;;;;4.30;2.15;;;;;;;;;;7409359;19;19930;-80
2024/03/01 12:30:12;;;;;;;4.63;2.13;;;;;;;;;;7412520;19;19914;-80
2024/03/01 12:33:15;;;;;;;4.43;2.33;;;;;;;;;;7406934;19;19918;-80
2024/03/01 12:36:04;;;;;;;5.75;2.35;;;;;;;;;;7406971;19;19922;-79
2024/03/01 12:39:04;;;;;;;3.85;2.05;;;;;;;;;;7406931;19;19974;-79
2024/03/01 12:42:05;;;;;;;3.22;2.15;;;;;;;;;;7412748;19;19907;-81
2024/03/01 12:45:02;;;;;;;6.00;3.13;;;;;;;;;;7412332;19;19918;-79
2024/03/01 12:47:56;;;;;;;4.65;2.70;;;;;;;;;;7407640;19;19978;-80
2024/03/01 12:50:58;;;;;;;3.78;2.10;;;;;;;;;;7412180;19;19911;-80
2024/03/01 12:54:07;;;;;;;5.07;2.45;;;;;;;;;;7409574;19;19914;-80
2024/03/01 12:57:06;;;;;;;4.15;2.30;;;;;;;;;;7405450;19;19940;-80
2024/03/01 13:00:00;;;;;;;4.97;2.20;;;;;;;;;;7406246;19;19918;-80
2024/03/01 13:03:07;;;;;;;2.83;1.85;;;;;;;;;;7412044;19;20246;-80
2024/03/01 13:05:54;;;;;;;4.75;1.80;;;;;;;;;;7406337;19;19937;-80
2024/03/01 13:08:49;;;;;;;3.00;1.73;;;;;;;;;;7410798;19;19929;-80
2024/03/01 13:11:38;;;;;;;4.25;1.98;;;;;;;;;;7412290;19;20016;-80
2024/03/01 13:14:38;;;;;;;9.40;2.05;;;;;;;;;;7412660;19;19978;-80
2024/03/01 13:17:40;;;;;;;3.75;1.90;;;;;;;;;;7408290;19;19926;-80
2024/03/01 13:20:39;;;;;;;2.90;1.77;;;;;;;;;;7411848;19;19923;-79
2024/03/01 13:23:31;;;;;;;3.97;2.08;;;;;;;;;;7411673;19;19914;-80
2024/03/01 13:26:34;;;;;;;5.72;2.05;;;;;;;;;;7411500;19;19925;-80
2024/03/01 13:29:20;;;;;;;3.67;2.10;;;;;;;;;;7410832;19;19914;-79
2024/03/01 13:32:13;;;;;;;3.92;2.20;;;;;;;;;;7410111;19;19926;-80
2024/03/01 13:35:04;;;;;;;3.22;1.90;;;;;;;;;;7410418;19;19914;-79
2024/03/01 13:37:59;;;;;;;3.83;1.92;;;;;;;;;;7409061;19;19906;-80
2024/03/01 13:40:53;;;;;;;3.80;1.95;;;;;;;;;;7412371;19;20500;-81
2024/03/01 13:43:45;;;;;;;4.38;2.17;;;;;;;;;;7411984;19;20329;-80
2024/03/01 13:46:39;;;;;;;6.63;2.58;;;;;;;;;;7409729;19;19914;-79
2024/03/01 13:49:38;;;;;;;7.40;2.75;;;;;;;;;;7406141;19;19935;-81
2024/03/01 13:52:27;;;;;;;3.88;2.20;;;;;;;;;;7408445;19;20010;-80
2024/03/01 13:55:18;;;;;;;6.15;2.20;;;;;;;;;;7410530;19;19914;-80
2024/03/01 13:58:03;;;;;;;3.60;2.10;;;;;;;;;;7409710;19;20258;-81
2024/03/01 14:00:52;;;;;;;5.82;2.90;;;;;;;;;;7410175;19;19929;-79
2024/03/01 14:03:41;;;;;;;5.18;2.15;;;;;;;;;;7407874;19;19922;-80
2024/03/01 14:06:30;;;;;;;4.28;2.03;;;;;;;;;;7409289;19;19952;-80
2024/03/01 14:09:18;;;;;;;3.35;2.30;;;;;;;;;;7411139;19;19918;-80
2024/03/01 14:12:02;;;;;;;3.25;2.03;;;;;;;;;;7412446;19;19952;-80
2024/03/01 14:14:48;;;;;;;4.80;2.33;;;;;;;;;;7409797;19;20318;-80
2024/03/01 14:17:32;;;;;;;5.38;2.63;;;;;;;;;;7409383;19;19926;-80
2024/03/01 14:20:18;;;;;;;5.20;2.53;;;;;;;;;;7412132;19;20234;-80
2024/03/01 14:23:10;;;;;;;4.15;2.33;;;;;;;;;;7409121;19;19938;-80
2024/03/01 14:25:58;;;;;;;3.03;1.67;;;;;;;;;;7412398;19;19942;-80
2024/03/01 14:28:47;;;;;;;5.07;2.55;;;;;;;;;;7410847;19;20252;-80
2024/03/01 14:31:31;;;;;;;3.63;1.60;;;;;;;;;;7410125;19;19919;-79
2024/03/01 14:34:18;;;;;;;3.20;1.85;;;;;;;;;;7407397;19;20397;-79
2024/03/01 14:37:02;;;;;;;3.55;1.58;;;;;;;;;;7408439;19;19922;-80
2024/03/01 14:39:51;;;;;;;2.40;1.52;;;;;;;;;;7411242;19;19919;-80
2024/03/01 14:42:40;;;;;;;3.65;1.83;;;;;;;;;;7408601;19;21475;-81
2024/03/01 14:45:25;;;;;;;3.28;1.90;;;;;;;;;;7409877;19;20337;-81
2024/03/01 14:48:11;;;;;;;4.00;2.17;;;;;;;;;;7407952;19;19918;-80
2024/03/01 14:51:04;;;;;;;3.85;1.67;;;;;;;;;;7412929;19;19922;-81
2024/03/01 14:53:52;;;;;;;4.32;1.63;;;;;;;;;;7406085;19;20302;-79
2024/03/01 14:56:45;;;;;;;2.22;1.42;;;;;;;;;;7408182;19;19919;-79
2024/03/01 14:59:33;;;;;;;2.58;1.40;;;;;;;;;;7408636;19;19914;-79
2024/03/01 15:02:18;;;;;;;3.17;1.60;;;;;;;;;;7410147;19;20345;-80
2024/03/01 15:05:08;;;;;;;3.70;1.50;;;;;;;;;;7411265;19;19911;-80
2024/03/01 15:07:57;;;;;;;2.10;1.13;;;;;;;;;;7408805;19;19911;-80
2024/03/01 15:10:42;;;;;;;2.65;1.48;;;;;;;;;;7408612;19;19915;-79
2024/03/01 15:13:31;;;;;;;5.70;1.65;;;;;;;;;;7406337;19;19930;-79
2024/03/01 15:16:22;;;;;;;2.92;1.38;;;;;;;;;;7409207;19;20318;-79
2024/03/01 15:19:11;;;;;;;5.20;1.77;;;;;;;;;;7409356;19;19915;-80
2024/03/01 15:21:56;;;;;;;2.28;1.20;;;;;;;;;;7417193;19;19919;-81
2024/03/01 15:24:40;;;;;;;2.00;1.10;;;;;;;;;;7413399;19;19911;-80
2024/03/01 15:27:28;;;;;;;2.75;1.70;;;;;;;;;;7413493;19;19917;-80
2024/03/01 15:30:17;;;;;;;2.13;1.30;;;;;;;;;;7413099;19;19935;-80
2024/03/01 15:33:02;;;;;;;2.97;1.58;;;;;;;;;;7414370;19;19940;-79
2024/03/01 15:35:46;;;;;;;2.30;1.10;;;;;;;;;;7414320;19;19949;-80
2024/03/01 15:38:31;;;;;;;5.30;1.63;;;;;;;;;;7411398;19;19919;-79
2024/03/01 15:41:17;;;;;;;1.85;1.00;;;;;;;;;;7414846;19;19923;-81
2024/03/01 15:44:04;;;;;;;3.13;1.40;;;;;;;;;;7413972;19;20261;-80
2024/03/01 15:46:51;;;;;;;4.53;1.23;;;;;;;;;;7414894;19;19923;-80
2024/03/01 15:49:39;;;;;;;2.17;1.40;;;;;;;;;;7417182;19;19939;-79
2024/03/01 15:52:27;;;;;;;3.03;1.40;;;;;;;;;;7410670;19;19949;-79
2024/03/01 15:55:16;;;;;;;3.55;1.67;;;;;;;;;;7412503;19;19919;-79
2024/03/01 15:58:00;;;;;;;2.75;1.60;;;;;;;;;;7410464;19;19926;-79
2024/03/01 16:00:48;;;;;;;4.10;1.58;;;;;;;;;;7411791;19;19915;-79
2024/03/01 16:03:35;;;;;;;2.85;1.55;;;;;;;;;;7410389;19;19922;-79
2024/03/01 16:06:24;;;;;;;5.53;1.60;;;;;;;;;;7414299;19;19930;-79
2024/03/01 16:09:11;;;;;;;3.28;2.45;;;;;;;;;;7412276;19;20329;-79
2024/03/01 16:11:55;;;;;;;6.97;1.95;;;;;;;;;;7416837;19;19934;-79
2024/03/01 16:14:41;;;;;;;4.82;1.80;;;;;;;;;;7414817;19;19918;-79
2024/03/01 16:17:27;;;;;;;4.43;2.22;;;;;;;;;;7416220;19;19980;-79
2024/03/01 16:20:14;;;;;;;4.13;2.22;;;;;;;;;;7417748;19;19993;-80
2024/03/01 16:23:01;;;;;;;3.88;1.90;;;;;;;;;;7407727;19;20010;-79
2024/03/01 16:25:48;;;;;;;5.40;2.58;;;;;;;;;;7413812;19;19923;-79
2024/03/01 16:28:35;;;;;;;2.83;1.73;;;;;;;;;;7416858;19;19926;-79
2024/03/01 16:31:19;;;;;;;4.00;2.30;;;;;;;;;;7411628;19;20268;-79
2024/03/01 16:34:07;;;;;;;4.40;2.10;;;;;;;;;;7415837;19;19914;-79
2024/03/01 16:36:56;;;;;;;7.00;3.97;;;;;;;;;;7415375;19;20318;-79
2024/03/01 16:39:46;;;;;;;8.75;4.00;;;;;;;;;;7415623;19;20298;-79
2024/03/01 16:42:43;;;;;;;10.07;4.25;;;;;;;;;;7415212;19;19922;-79
2024/03/01 16:45:34;;;;;;;11.57;5.80;;;;;;;;;;7409847;19;19945;-78
2024/03/01 16:48:38;;;;;;;15.38;7.93;;;;;;;;;;7412467;19;20411;-79